Time;durP1;ratioP1;P1;durP2;ratioP2;P2;SDS_P1;SDS_P2;PMS_P1;PMS_P2;Temp;Humidity;BMP_temperature;BMP_pressure;BME280_temperature;BME280_humidity;BME280_pressure;Samples;Min_cycle;Max_cycle;Signal;HPM_P1;HPM_P2
2021/12/25 00:00:37;;;;;;;89.30;31.50;;;;;;;;;;5056443;28;20074;-66
2021/12/25 00:03:04;;;;;;;96.95;32.90;;;;;;;;;;5056295;28;20422;-67
2021/12/25 00:05:32;;;;;;;101.50;34.85;;;;;;;;;;5056230;28;20358;-68
2021/12/25 00:07:59;;;;;;;101.20;36.28;;;;;;;;;;5057201;28;20047;-67
2021/12/25 00:10:30;;;;;;;90.57;33.35;;;;;;;;;;5057253;28;20295;-68
2021/12/25 00:12:58;;;;;;;92.55;31.92;;;;;;;;;;5057301;28;20669;-68
2021/12/25 00:15:26;;;;;;;90.57;32.55;;;;;;;;;;5056058;28;20036;-68
2021/12/25 00:17:53;;;;;;;85.32;29.50;;;;;;;;;;5056844;28;20032;-67
2021/12/25 00:20:21;;;;;;;84.72;30.75;;;;;;;;;;5056022;28;20307;-67
2021/12/25 00:22:47;;;;;;;75.32;27.67;;;;;;;;;;5056947;28;20067;-68
2021/12/25 00:25:15;;;;;;;79.38;27.75;;;;;;;;;;5055822;28;20044;-69
2021/12/25 00:27:57;;;;;;;74.43;27.58;;;;;;;;;;5056985;28;20075;-68
2021/12/25 00:30:45;;;;;;;75.00;26.35;;;;;;;;;;5056946;28;20041;-67
2021/12/25 00:33:34;;;;;;;71.97;26.00;;;;;;;;;;5056865;28;20028;-68
2021/12/25 00:36:02;;;;;;;76.93;26.83;;;;;;;;;;5056755;28;20017;-67
2021/12/25 00:38:31;;;;;;;72.07;26.13;;;;;;;;;;5055991;28;20368;-66
2021/12/25 00:40:59;;;;;;;67.53;26.20;;;;;;;;;;5055644;28;20021;-69
2021/12/25 00:43:26;;;;;;;74.00;26.08;;;;;;;;;;5056674;28;20045;-68
2021/12/25 00:45:54;;;;;;;66.60;25.45;;;;;;;;;;5056647;28;20017;-67
2021/12/25 00:48:22;;;;;;;71.47;25.88;;;;;;;;;;5056460;28;20495;-68
2021/12/25 00:50:50;;;;;;;76.63;25.95;;;;;;;;;;5056652;28;20025;-68
2021/12/25 00:53:17;;;;;;;75.57;28.27;;;;;;;;;;5056651;28;20426;-66
2021/12/25 00:55:45;;;;;;;73.53;27.52;;;;;;;;;;5055367;28;20032;-67
2021/12/25 00:58:12;;;;;;;72.68;27.05;;;;;;;;;;5056445;28;20025;-67
2021/12/25 01:00:40;;;;;;;72.88;25.48;;;;;;;;;;5056564;28;20033;-68
2021/12/25 01:03:08;;;;;;;74.38;26.92;;;;;;;;;;5055376;28;20056;-66
2021/12/25 01:05:35;;;;;;;74.05;26.40;;;;;;;;;;5056342;28;20434;-68
2021/12/25 01:08:03;;;;;;;65.00;26.58;;;;;;;;;;5055027;28;20091;-67
2021/12/25 01:10:33;;;;;;;69.15;25.80;;;;;;;;;;5055715;28;20029;-69
2021/12/25 01:13:16;;;;;;;65.47;24.85;;;;;;;;;;5056102;28;20037;-69
2021/12/25 01:15:59;;;;;;;70.07;25.05;;;;;;;;;;5055026;28;20079;-68
2021/12/25 01:18:57;;;;;;;74.05;26.15;;;;;;;;;;5056124;28;20013;-67
2021/12/25 01:29:33;;;;;;;77.38;28.40;;;;;;;;;;5055926;28;20028;-66
2021/12/25 01:34:57;;;;;;;81.03;30.17;;;;;;;;;;5055876;28;20503;-67
2021/12/25 01:48:40;;;;;;;90.13;32.30;;;;;;;;;;5053871;28;20032;-68
2021/12/25 01:51:07;;;;;;;96.15;34.58;;;;;;;;;;5054062;28;20112;-67
2021/12/25 01:53:34;;;;;;;90.03;32.28;;;;;;;;;;5053831;28;20029;-67
2021/12/25 01:56:02;;;;;;;88.68;32.65;;;;;;;;;;5053844;28;20028;-67
2021/12/25 01:58:30;;;;;;;85.55;32.58;;;;;;;;;;5053606;28;20044;-66
2021/12/25 02:00:58;;;;;;;99.45;34.97;;;;;;;;;;5053859;28;20048;-67
2021/12/25 02:03:30;;;;;;;96.75;35.53;;;;;;;;;;5053886;28;20033;-67
2021/12/25 02:06:00;;;;;;;92.65;32.58;;;;;;;;;;5053520;28;20169;-70
2021/12/25 02:08:28;;;;;;;98.72;37.25;;;;;;;;;;5053588;28;20028;-67
2021/12/25 02:10:56;;;;;;;89.85;33.80;;;;;;;;;;5053754;28;20074;-68
2021/12/25 02:13:24;;;;;;;95.78;35.50;;;;;;;;;;5053584;28;20090;-70
2021/12/25 02:15:53;;;;;;;88.22;34.45;;;;;;;;;;5053668;28;20032;-68
2021/12/25 02:18:53;;;;;;;89.15;33.60;;;;;;;;;;5053295;28;20060;-69
2021/12/25 02:21:21;;;;;;;95.25;33.72;;;;;;;;;;5053416;28;20095;-68
2021/12/25 02:23:49;;;;;;;93.07;38.25;;;;;;;;;;5056397;28;20044;-67
2021/12/25 02:26:18;;;;;;;90.07;35.67;;;;;;;;;;5057411;28;20033;-70
2021/12/25 02:28:46;;;;;;;90.93;36.78;;;;;;;;;;5040580;28;20031;-67
2021/12/25 02:31:15;;;;;;;87.82;37.30;;;;;;;;;;5040495;28;20171;-67
2021/12/25 02:33:43;;;;;;;94.13;37.42;;;;;;;;;;5040758;28;20033;-68
2021/12/25 02:36:11;;;;;;;92.90;35.88;;;;;;;;;;5057081;28;20029;-67
2021/12/25 02:38:41;;;;;;;93.30;36.35;;;;;;;;;;5040507;28;20112;-68
2021/12/25 02:41:09;;;;;;;83.60;33.10;;;;;;;;;;5040549;28;20028;-70
2021/12/25 02:43:37;;;;;;;81.20;31.90;;;;;;;;;;5040522;28;20048;-66
2021/12/25 02:46:05;;;;;;;81.55;32.38;;;;;;;;;;5040254;28;20438;-66
2021/12/25 02:48:36;;;;;;;77.90;30.40;;;;;;;;;;5057329;28;20021;-66
2021/12/25 02:51:05;;;;;;;83.88;30.90;;;;;;;;;;5056958;28;20048;-66
2021/12/25 02:53:32;;;;;;;80.68;32.95;;;;;;;;;;5056960;28;20025;-66
2021/12/25 02:56:00;;;;;;;73.95;29.23;;;;;;;;;;5056942;28;20040;-66
2021/12/25 02:58:27;;;;;;;79.32;30.63;;;;;;;;;;5040168;28;20056;-67
2021/12/25 03:00:59;;;;;;;76.57;31.17;;;;;;;;;;5056908;28;20021;-67
2021/12/25 03:03:27;;;;;;;71.15;29.63;;;;;;;;;;5058582;28;20017;-68
2021/12/25 03:05:55;;;;;;;72.13;29.83;;;;;;;;;;5058390;28;20100;-68
2021/12/25 03:08:22;;;;;;;66.80;27.83;;;;;;;;;;5058517;28;20025;-67
2021/12/25 03:10:52;;;;;;;67.65;28.23;;;;;;;;;;5058598;28;20032;-67
2021/12/25 03:16:07;;;;;;;67.47;29.85;;;;;;;;;;5058390;28;20021;-67
2021/12/25 03:18:41;;;;;;;71.10;29.90;;;;;;;;;;5058269;28;20021;-67
2021/12/25 03:21:08;;;;;;;86.50;35.47;;;;;;;;;;5058216;28;20025;-66
2021/12/25 03:23:36;;;;;;;77.72;34.72;;;;;;;;;;5057702;28;20049;-67
2021/12/25 03:26:03;;;;;;;78.45;35.72;;;;;;;;;;5058044;28;20029;-66
2021/12/25 03:28:33;;;;;;;84.38;36.30;;;;;;;;;;5057976;28;20075;-66
2021/12/25 03:31:04;;;;;;;77.07;32.60;;;;;;;;;;5056848;28;20112;-67
2021/12/25 03:33:32;;;;;;;89.03;35.05;;;;;;;;;;5056669;28;20387;-67
2021/12/25 03:36:03;;;;;;;87.20;33.72;;;;;;;;;;5056693;28;20583;-66
2021/12/25 03:38:31;;;;;;;87.57;33.92;;;;;;;;;;5057551;28;20071;-66
2021/12/25 03:41:00;;;;;;;79.05;31.55;;;;;;;;;;5056620;28;20444;-67
2021/12/25 03:43:28;;;;;;;69.05;29.83;;;;;;;;;;5057664;28;20410;-66
2021/12/25 03:45:56;;;;;;;58.03;26.05;;;;;;;;;;5057656;28;20326;-66
2021/12/25 03:48:44;;;;;;;58.75;26.13;;;;;;;;;;5057417;28;20025;-66
2021/12/25 03:59:20;;;;;;;38.08;16.90;;;;;;;;;;5058071;28;20456;-67
2021/12/25 04:01:55;;;;;;;36.10;18.00;;;;;;;;;;5058152;28;20036;-67
2021/12/25 04:04:37;;;;;;;31.20;14.43;;;;;;;;;;5057675;28;20024;-68
2021/12/25 04:07:25;;;;;;;34.95;14.15;;;;;;;;;;5057932;28;20104;-68
2021/12/25 04:10:02;;;;;;;40.20;19.10;;;;;;;;;;5057591;28;20314;-67
2021/12/25 04:12:31;;;;;;;43.47;21.35;;;;;;;;;;5058763;28;20021;-68
2021/12/25 04:14:59;;;;;;;32.72;16.73;;;;;;;;;;5058266;28;20043;-67
2021/12/25 04:17:27;;;;;;;34.25;15.77;;;;;;;;;;5071908;28;20028;-68
2021/12/25 04:19:54;;;;;;;44.42;17.40;;;;;;;;;;5067772;28;20025;-67
2021/12/25 04:22:29;;;;;;;40.60;18.23;;;;;;;;;;5069926;28;20029;-68
2021/12/25 04:24:56;;;;;;;42.33;19.63;;;;;;;;;;5071900;28;20033;-67
2021/12/25 04:27:23;;;;;;;36.08;14.98;;;;;;;;;;5068855;28;20078;-66
2021/12/25 05:03:31;;;;;;;40.28;17.42;;;;;;;;;;4996621;28;20033;-67
2021/12/25 05:06:00;;;;;;;34.00;14.77;;;;;;;;;;4998808;28;20034;-67
2021/12/25 05:08:28;;;;;;;38.13;13.32;;;;;;;;;;4996512;28;20030;-67
2021/12/25 05:10:57;;;;;;;35.88;15.93;;;;;;;;;;4957080;29;20039;-65
2021/12/25 05:13:24;;;;;;;35.50;15.63;;;;;;;;;;4940237;28;20024;-66
2021/12/25 05:15:52;;;;;;;33.65;14.30;;;;;;;;;;4956269;29;20141;-67
2021/12/25 05:18:19;;;;;;;27.73;12.68;;;;;;;;;;4956201;29;20054;-67
2021/12/25 05:20:47;;;;;;;53.92;32.22;;;;;;;;;;4956223;29;20114;-66
2021/12/25 05:23:13;;;;;;;36.88;15.60;;;;;;;;;;4939871;28;20050;-66
2021/12/25 05:25:40;;;;;;;42.80;17.50;;;;;;;;;;4956053;29;20455;-66
2021/12/25 05:28:08;;;;;;;40.53;16.27;;;;;;;;;;4946786;28;20062;-66
2021/12/25 05:30:37;;;;;;;32.00;13.48;;;;;;;;;;5055171;28;20047;-66
2021/12/25 05:33:05;;;;;;;31.95;13.07;;;;;;;;;;5056175;28;20021;-66
2021/12/25 05:35:33;;;;;;;32.65;13.45;;;;;;;;;;5055859;28;20025;-67
2021/12/25 05:38:01;;;;;;;35.75;14.13;;;;;;;;;;5056109;28;20031;-65
2021/12/25 05:40:28;;;;;;;29.55;13.00;;;;;;;;;;5055882;28;20028;-65
2021/12/25 05:42:56;;;;;;;25.38;11.52;;;;;;;;;;5055997;28;20454;-66
2021/12/25 05:45:23;;;;;;;31.23;13.02;;;;;;;;;;5055601;28;20036;-67
2021/12/25 05:47:51;;;;;;;39.92;15.50;;;;;;;;;;5055768;28;20033;-66
2021/12/25 05:50:19;;;;;;;35.80;14.77;;;;;;;;;;5055867;28;20025;-66
2021/12/25 05:52:46;;;;;;;33.95;17.88;;;;;;;;;;5054692;28;20060;-66
2021/12/25 05:55:14;;;;;;;34.92;16.05;;;;;;;;;;5055679;28;20025;-67
2021/12/25 05:57:42;;;;;;;31.42;16.17;;;;;;;;;;5057663;28;20021;-68
2021/12/25 06:00:10;;;;;;;35.72;16.10;;;;;;;;;;5058643;28;20059;-66
2021/12/25 06:02:38;;;;;;;45.25;17.90;;;;;;;;;;5059516;28;20033;-66
2021/12/25 06:05:06;;;;;;;38.03;16.25;;;;;;;;;;5059573;28;20322;-67
2021/12/25 06:07:34;;;;;;;40.17;17.10;;;;;;;;;;5059306;28;20017;-66
2021/12/25 06:10:04;;;;;;;38.03;18.00;;;;;;;;;;5059744;28;20337;-67
2021/12/25 06:12:32;;;;;;;45.08;19.60;;;;;;;;;;5058339;28;20025;-67
2021/12/25 06:15:02;;;;;;;31.60;16.55;;;;;;;;;;5059509;28;20025;-67
2021/12/25 06:17:29;;;;;;;32.92;14.38;;;;;;;;;;5059450;28;20060;-67
2021/12/25 06:19:57;;;;;;;35.72;14.00;;;;;;;;;;5058273;28;20024;-66
2021/12/25 06:22:23;;;;;;;38.13;19.77;;;;;;;;;;5057788;28;20394;-66
2021/12/25 06:24:51;;;;;;;31.45;14.70;;;;;;;;;;5059053;28;20064;-66
2021/12/25 06:27:18;;;;;;;28.90;11.68;;;;;;;;;;5059267;28;20044;-66
2021/12/25 06:29:46;;;;;;;21.92;11.20;;;;;;;;;;5058180;28;20029;-67
2021/12/25 06:32:14;;;;;;;21.35;9.90;;;;;;;;;;5058030;28;20108;-66
2021/12/25 06:34:41;;;;;;;22.10;10.00;;;;;;;;;;5059238;28;20029;-67
2021/12/25 06:37:09;;;;;;;30.35;13.75;;;;;;;;;;5058088;28;20390;-66
2021/12/25 06:39:38;;;;;;;37.05;16.38;;;;;;;;;;5058991;28;20025;-67
2021/12/25 06:42:07;;;;;;;44.30;21.17;;;;;;;;;;5057973;28;20031;-67
2021/12/25 06:44:34;;;;;;;54.75;23.45;;;;;;;;;;5057860;28;20102;-68
2021/12/25 06:47:03;;;;;;;52.50;22.67;;;;;;;;;;5058892;28;20021;-67
2021/12/25 06:49:31;;;;;;;58.88;28.73;;;;;;;;;;5058882;28;20463;-66
2021/12/25 06:51:58;;;;;;;50.17;22.02;;;;;;;;;;5058782;28;20295;-67
2021/12/25 06:54:26;;;;;;;46.10;21.13;;;;;;;;;;5057569;28;20021;-66
2021/12/25 06:56:54;;;;;;;35.78;18.10;;;;;;;;;;5058705;28;20049;-66
2021/12/25 06:59:21;;;;;;;48.22;20.95;;;;;;;;;;5058659;28;20021;-66
2021/12/25 07:01:50;;;;;;;44.90;19.20;;;;;;;;;;5058582;28;20106;-66
2021/12/25 07:04:17;;;;;;;62.45;25.48;;;;;;;;;;5057369;28;20025;-66
2021/12/25 07:06:45;;;;;;;61.58;27.20;;;;;;;;;;5058403;28;20094;-67
2021/12/25 07:09:12;;;;;;;55.10;21.38;;;;;;;;;;5057513;28;20021;-68
2021/12/25 07:11:40;;;;;;;31.40;16.27;;;;;;;;;;5058196;28;20028;-68
2021/12/25 07:14:09;;;;;;;40.75;16.83;;;;;;;;;;5058300;28;20025;-67
2021/12/25 07:16:36;;;;;;;49.05;19.67;;;;;;;;;;5057927;28;20095;-68
2021/12/25 07:19:04;;;;;;;36.58;17.80;;;;;;;;;;5057885;28;20025;-67
2021/12/25 07:21:34;;;;;;;39.03;16.33;;;;;;;;;;5058077;28;20029;-66
2021/12/25 07:24:03;;;;;;;39.75;17.65;;;;;;;;;;5057945;28;20037;-67
2021/12/25 07:26:30;;;;;;;39.13;19.73;;;;;;;;;;5056960;28;20059;-67
2021/12/25 07:28:58;;;;;;;36.47;19.38;;;;;;;;;;5058401;28;20319;-67
2021/12/25 07:31:26;;;;;;;42.00;21.60;;;;;;;;;;5056876;28;20025;-67
2021/12/25 07:33:53;;;;;;;39.75;21.02;;;;;;;;;;5056693;28;20025;-66
2021/12/25 07:36:21;;;;;;;44.80;20.63;;;;;;;;;;5057678;28;20299;-66
2021/12/25 07:38:49;;;;;;;40.20;20.13;;;;;;;;;;5056514;28;20056;-66
2021/12/25 07:41:17;;;;;;;37.13;17.65;;;;;;;;;;5057744;28;20023;-65
2021/12/25 07:43:44;;;;;;;38.50;19.13;;;;;;;;;;5057195;28;20021;-65
2021/12/25 07:46:12;;;;;;;42.17;21.30;;;;;;;;;;5057504;28;20078;-66
2021/12/25 07:48:39;;;;;;;38.80;19.58;;;;;;;;;;5057412;28;20033;-66
2021/12/25 07:51:07;;;;;;;59.85;28.60;;;;;;;;;;5057527;28;20017;-67
2021/12/25 07:53:37;;;;;;;54.55;25.50;;;;;;;;;;5057511;28;20055;-67
2021/12/25 07:56:05;;;;;;;60.50;32.13;;;;;;;;;;5057480;28;20032;-68
2021/12/25 07:58:32;;;;;;;51.65;26.52;;;;;;;;;;5056434;28;20056;-67
2021/12/25 08:01:00;;;;;;;59.67;28.40;;;;;;;;;;5056315;28;20029;-68
2021/12/25 08:03:27;;;;;;;65.07;32.75;;;;;;;;;;5057486;28;20045;-67
2021/12/25 08:05:57;;;;;;;66.32;32.60;;;;;;;;;;5061319;28;20024;-69
2021/12/25 08:08:25;;;;;;;39.70;18.77;;;;;;;;;;5067041;28;20025;-67
2021/12/25 08:10:52;;;;;;;65.95;29.45;;;;;;;;;;5057438;28;20029;-68
2021/12/25 08:13:20;;;;;;;55.90;28.50;;;;;;;;;;5056365;28;20086;-68
2021/12/25 08:15:47;;;;;;;56.65;30.77;;;;;;;;;;5057426;28;20439;-68
2021/12/25 08:18:16;;;;;;;51.22;26.70;;;;;;;;;;5057308;28;20025;-67
2021/12/25 08:20:43;;;;;;;57.08;26.92;;;;;;;;;;5056036;28;20021;-67
2021/12/25 08:23:09;;;;;;;63.50;25.05;;;;;;;;;;5056901;28;20441;-67
2021/12/25 08:25:41;;;;;;;64.07;25.48;;;;;;;;;;5057206;28;20116;-68
2021/12/25 08:28:09;;;;;;;72.40;26.30;;;;;;;;;;5057127;28;20460;-68
2021/12/25 08:30:37;;;;;;;81.53;39.30;;;;;;;;;;5056960;28;20029;-68
2021/12/25 08:33:05;;;;;;;81.15;39.90;;;;;;;;;;5057041;28;20440;-68
2021/12/25 08:35:33;;;;;;;157.93;102.32;;;;;;;;;;5055958;28;20029;-69
2021/12/25 08:38:00;;;;;;;108.50;56.00;;;;;;;;;;5055728;28;20144;-68
2021/12/25 08:40:28;;;;;;;143.38;71.65;;;;;;;;;;5055756;28;20422;-68
2021/12/25 08:43:00;;;;;;;138.85;78.18;;;;;;;;;;5055981;28;20473;-68
2021/12/25 08:48:08;;;;;;;129.60;63.50;;;;;;;;;;5056579;28;20021;-67
2021/12/25 08:50:36;;;;;;;121.20;60.95;;;;;;;;;;5056611;28;20105;-68
2021/12/25 08:53:04;;;;;;;127.82;59.90;;;;;;;;;;5056343;28;20025;-68
2021/12/25 08:55:32;;;;;;;125.07;60.60;;;;;;;;;;5056477;28;20032;-68
2021/12/25 08:57:59;;;;;;;119.72;62.47;;;;;;;;;;5056468;28;20407;-68
2021/12/25 09:00:27;;;;;;;127.47;64.97;;;;;;;;;;5056447;28;20448;-68
2021/12/25 09:02:55;;;;;;;135.05;68.10;;;;;;;;;;5055256;28;20025;-67
2021/12/25 09:05:23;;;;;;;133.75;69.05;;;;;;;;;;5056210;28;20028;-68
2021/12/25 09:07:50;;;;;;;152.23;79.05;;;;;;;;;;5056322;28;20078;-67
2021/12/25 09:10:18;;;;;;;170.43;84.93;;;;;;;;;;5056166;28;20021;-67
2021/12/25 09:12:49;;;;;;;164.02;86.45;;;;;;;;;;5057823;28;20049;-67
2021/12/25 09:15:17;;;;;;;177.43;87.75;;;;;;;;;;5057197;28;20123;-68
2021/12/25 09:17:46;;;;;;;173.48;84.38;;;;;;;;;;5055054;28;20036;-67
2021/12/25 09:20:17;;;;;;;156.52;79.65;;;;;;;;;;5056097;28;20025;-67
2021/12/25 09:22:44;;;;;;;156.52;81.65;;;;;;;;;;5055853;28;20390;-67
2021/12/25 09:25:12;;;;;;;183.35;86.57;;;;;;;;;;5062137;28;20033;-68
2021/12/25 09:27:39;;;;;;;155.60;75.88;;;;;;;;;;5056023;28;20048;-67
2021/12/25 09:30:07;;;;;;;156.52;80.20;;;;;;;;;;5054856;28;20157;-68
2021/12/25 09:32:38;;;;;;;172.77;83.97;;;;;;;;;;5054072;28;20017;-68
2021/12/25 09:35:08;;;;;;;167.35;82.25;;;;;;;;;;5055891;28;20429;-68
2021/12/25 09:37:36;;;;;;;171.68;88.65;;;;;;;;;;5055913;28;20033;-68
2021/12/25 09:40:05;;;;;;;180.95;91.55;;;;;;;;;;5054562;28;20029;-68
2021/12/25 09:42:33;;;;;;;186.48;94.00;;;;;;;;;;5055518;28;20131;-67
2021/12/25 09:45:00;;;;;;;186.77;93.55;;;;;;;;;;5055698;28;20032;-67
2021/12/25 09:47:28;;;;;;;200.25;98.90;;;;;;;;;;5055927;28;20027;-68
2021/12/25 09:49:56;;;;;;;196.52;98.80;;;;;;;;;;5055655;28;20025;-68
2021/12/25 09:52:23;;;;;;;178.80;94.78;;;;;;;;;;5055465;28;20100;-68
2021/12/25 09:54:51;;;;;;;187.52;96.57;;;;;;;;;;5055346;28;20036;-68
2021/12/25 09:57:22;;;;;;;195.00;95.82;;;;;;;;;;5054355;28;20064;-68
2021/12/25 09:59:51;;;;;;;207.88;104.40;;;;;;;;;;5055521;28;20032;-68
2021/12/25 10:02:18;;;;;;;231.82;113.00;;;;;;;;;;5055622;28;20071;-68
2021/12/25 10:04:47;;;;;;;215.80;113.22;;;;;;;;;;5054231;28;20036;-67
2021/12/25 10:07:29;;;;;;;213.55;112.47;;;;;;;;;;5055414;28;20096;-67
2021/12/25 10:10:04;;;;;;;220.68;117.20;;;;;;;;;;5055510;28;20020;-67
2021/12/25 10:12:42;;;;;;;215.95;118.03;;;;;;;;;;5054184;28;20116;-67
2021/12/25 10:15:12;;;;;;;213.27;110.40;;;;;;;;;;5055328;28;20033;-68
2021/12/25 10:17:53;;;;;;;203.57;105.50;;;;;;;;;;5055244;28;20040;-68
2021/12/25 10:20:31;;;;;;;187.77;101.18;;;;;;;;;;5055366;28;20017;-68
2021/12/25 10:22:58;;;;;;;188.75;96.28;;;;;;;;;;5055041;28;20051;-68
2021/12/25 10:25:32;;;;;;;188.60;94.93;;;;;;;;;;5055218;28;20040;-68
2021/12/25 10:28:06;;;;;;;188.07;95.53;;;;;;;;;;5055218;28;20048;-67
2021/12/25 10:30:54;;;;;;;193.15;97.10;;;;;;;;;;5053998;28;20029;-68
2021/12/25 10:33:35;;;;;;;183.57;92.68;;;;;;;;;;5053458;28;20029;-68
2021/12/25 10:36:07;;;;;;;190.13;92.00;;;;;;;;;;5055177;28;20055;-67
2021/12/25 10:38:36;;;;;;;202.70;91.05;;;;;;;;;;5055121;28;20017;-68
2021/12/25 10:41:11;;;;;;;179.20;84.93;;;;;;;;;;5054002;28;20417;-68
2021/12/25 10:43:42;;;;;;;197.45;90.70;;;;;;;;;;5056517;28;20029;-67
2021/12/25 10:46:10;;;;;;;197.25;89.68;;;;;;;;;;5058992;28;20025;-67
2021/12/25 10:48:38;;;;;;;189.68;88.68;;;;;;;;;;5058999;28;20029;-68
2021/12/25 10:51:06;;;;;;;175.45;82.32;;;;;;;;;;5059032;28;20444;-67
2021/12/25 10:53:43;;;;;;;176.00;83.75;;;;;;;;;;5058780;28;20056;-67
2021/12/25 10:56:15;;;;;;;180.63;83.60;;;;;;;;;;5057400;28;20083;-67
2021/12/25 10:58:43;;;;;;;212.52;88.75;;;;;;;;;;5057436;28;20032;-68
2021/12/25 11:01:13;;;;;;;238.07;89.20;;;;;;;;;;5058390;28;20025;-68
2021/12/25 11:03:41;;;;;;;209.68;85.57;;;;;;;;;;5058389;28;20713;-68
2021/12/25 11:06:14;;;;;;;219.10;87.57;;;;;;;;;;5057647;28;20091;-68
2021/12/25 11:08:41;;;;;;;224.23;87.45;;;;;;;;;;5058157;28;20067;-68
2021/12/25 11:11:16;;;;;;;220.38;88.60;;;;;;;;;;5058377;28;20036;-69
2021/12/25 11:13:52;;;;;;;237.32;93.43;;;;;;;;;;5056220;28;20033;-68
2021/12/25 11:16:31;;;;;;;238.32;91.22;;;;;;;;;;5056510;28;20835;-68
2021/12/25 11:21:52;;;;;;;223.55;93.70;;;;;;;;;;5056313;28;20025;-68
2021/12/25 11:24:37;;;;;;;215.10;94.28;;;;;;;;;;5039369;28;20327;-68
2021/12/25 11:27:06;;;;;;;206.32;95.72;;;;;;;;;;5056131;28;20575;-68
2021/12/25 11:29:35;;;;;;;192.52;90.72;;;;;;;;;;5056000;28;20040;-69
2021/12/25 11:32:04;;;;;;;181.18;89.47;;;;;;;;;;5055977;28;20032;-68
2021/12/25 11:34:32;;;;;;;200.02;94.70;;;;;;;;;;5055925;28;20045;-68
2021/12/25 11:37:00;;;;;;;225.82;110.88;;;;;;;;;;5056065;28;20465;-67
2021/12/25 11:39:28;;;;;;;234.63;115.38;;;;;;;;;;5055951;28;20063;-68
2021/12/25 11:42:00;;;;;;;241.32;115.82;;;;;;;;;;5039179;28;20433;-68
2021/12/25 11:44:42;;;;;;;238.60;117.75;;;;;;;;;;5044513;28;20041;-68
2021/12/25 11:47:28;;;;;;;235.85;118.72;;;;;;;;;;5057761;28;20333;-68
2021/12/25 11:50:00;;;;;;;234.68;120.25;;;;;;;;;;5057753;28;20021;-68
2021/12/25 11:52:34;;;;;;;242.20;119.43;;;;;;;;;;5057711;28;20021;-68
2021/12/25 11:55:32;;;;;;;261.10;125.85;;;;;;;;;;5056087;28;20308;-68
2021/12/25 12:00:43;;;;;;;262.95;130.75;;;;;;;;;;5057333;28;20059;-68
2021/12/25 12:03:31;;;;;;;301.75;140.55;;;;;;;;;;5057310;28;20025;-67
2021/12/25 12:05:58;;;;;;;285.38;140.40;;;;;;;;;;5060001;28;20036;-68
2021/12/25 12:08:26;;;;;;;275.70;136.63;;;;;;;;;;5058171;28;20032;-68
2021/12/25 12:10:57;;;;;;;286.77;141.32;;;;;;;;;;5061225;28;20021;-68
2021/12/25 12:13:32;;;;;;;288.45;143.35;;;;;;;;;;5063920;28;20096;-68
2021/12/25 12:16:01;;;;;;;305.80;140.48;;;;;;;;;;5065177;28;20037;-69
2021/12/25 12:18:35;;;;;;;295.50;140.38;;;;;;;;;;5063626;28;20020;-68
2021/12/25 12:21:16;;;;;;;296.40;136.38;;;;;;;;;;5062096;28;20025;-69
2021/12/25 12:26:49;;;;;;;248.90;112.15;;;;;;;;;;5060402;28;20106;-68
2021/12/25 12:29:37;;;;;;;246.38;108.72;;;;;;;;;;5055978;28;20017;-68
2021/12/25 12:32:05;;;;;;;221.07;99.45;;;;;;;;;;5018663;28;20145;-68
2021/12/25 12:34:40;;;;;;;213.05;98.38;;;;;;;;;;5034792;28;20034;-68
2021/12/25 12:37:19;;;;;;;218.70;98.55;;;;;;;;;;5035195;28;20029;-68
2021/12/25 12:40:03;;;;;;;215.05;94.53;;;;;;;;;;5018070;28;20026;-69
2021/12/25 12:42:49;;;;;;;218.43;96.30;;;;;;;;;;5018007;28;20512;-68
2021/12/25 12:45:30;;;;;;;197.82;87.70;;;;;;;;;;5038532;28;20088;-67
2021/12/25 12:48:17;;;;;;;209.05;91.18;;;;;;;;;;5038894;28;20123;-69
2021/12/25 12:50:46;;;;;;;208.93;91.05;;;;;;;;;;5021726;28;20109;-68
2021/12/25 12:53:14;;;;;;;206.95;90.32;;;;;;;;;;5018532;28;20033;-68
2021/12/25 12:55:43;;;;;;;224.02;85.82;;;;;;;;;;5034724;28;20438;-68
2021/12/25 12:58:26;;;;;;;193.00;80.68;;;;;;;;;;5034968;28;20034;-69
2021/12/25 13:00:58;;;;;;;217.13;82.75;;;;;;;;;;5034723;28;20037;-69
2021/12/25 13:03:28;;;;;;;207.40;84.38;;;;;;;;;;5017897;28;20041;-69
2021/12/25 13:05:58;;;;;;;192.85;84.63;;;;;;;;;;5033721;28;20369;-69
2021/12/25 13:08:31;;;;;;;198.52;84.10;;;;;;;;;;5038700;28;20039;-69
2021/12/25 13:11:08;;;;;;;200.65;87.35;;;;;;;;;;5056319;28;20409;-69
2021/12/25 13:13:50;;;;;;;222.52;98.38;;;;;;;;;;5055073;28;20025;-69
2021/12/25 13:16:19;;;;;;;221.45;99.40;;;;;;;;;;5056288;28;20339;-69
2021/12/25 13:18:47;;;;;;;224.88;98.97;;;;;;;;;;5054793;28;20025;-68
2021/12/25 13:21:22;;;;;;;197.10;87.00;;;;;;;;;;5056172;28;20025;-68
2021/12/25 13:23:52;;;;;;;192.77;82.68;;;;;;;;;;5055913;28;20037;-68
2021/12/25 13:26:26;;;;;;;208.70;87.35;;;;;;;;;;5056210;28;20045;-68
2021/12/25 13:28:54;;;;;;;232.18;99.97;;;;;;;;;;5055782;28;20402;-68
2021/12/25 13:31:23;;;;;;;226.18;98.18;;;;;;;;;;5054854;28;20340;-68
2021/12/25 13:34:03;;;;;;;226.10;94.78;;;;;;;;;;5057265;28;20024;-68
2021/12/25 13:36:33;;;;;;;228.05;98.13;;;;;;;;;;5055968;28;20294;-68
2021/12/25 13:39:14;;;;;;;234.52;99.57;;;;;;;;;;5055724;28;20017;-68
2021/12/25 13:41:52;;;;;;;221.88;90.80;;;;;;;;;;5054923;28;20021;-67
2021/12/25 13:44:34;;;;;;;202.80;85.65;;;;;;;;;;5054455;28;20056;-67
2021/12/25 13:47:06;;;;;;;197.50;83.28;;;;;;;;;;5054550;28;20040;-69
2021/12/25 13:49:51;;;;;;;213.52;88.18;;;;;;;;;;5054318;28;20025;-69
2021/12/25 13:52:24;;;;;;;208.38;81.53;;;;;;;;;;5055203;28;20418;-68
2021/12/25 13:55:12;;;;;;;202.18;82.75;;;;;;;;;;5055331;28;20032;-68
2021/12/25 13:57:50;;;;;;;194.88;77.60;;;;;;;;;;5055457;28;20381;-69
2021/12/25 14:00:27;;;;;;;186.27;73.65;;;;;;;;;;5055497;28;20033;-68
2021/12/25 14:02:57;;;;;;;182.27;71.78;;;;;;;;;;5055810;28;20074;-68
2021/12/25 14:05:28;;;;;;;192.38;72.22;;;;;;;;;;5055357;28;20021;-68
2021/12/25 14:07:56;;;;;;;192.18;74.97;;;;;;;;;;5055349;28;20029;-69
2021/12/25 14:10:28;;;;;;;195.85;69.65;;;;;;;;;;5054459;28;20027;-71
2021/12/25 14:12:57;;;;;;;186.77;71.03;;;;;;;;;;5054890;28;20434;-70
2021/12/25 14:15:27;;;;;;;200.65;72.03;;;;;;;;;;5054635;28;20043;-68
2021/12/25 14:17:56;;;;;;;201.27;74.22;;;;;;;;;;5056265;28;20047;-68
2021/12/25 14:20:31;;;;;;;186.55;67.68;;;;;;;;;;5059329;28;20372;-68
2021/12/25 14:23:09;;;;;;;203.05;72.00;;;;;;;;;;5058309;28;20045;-69
2021/12/25 14:25:38;;;;;;;192.13;68.72;;;;;;;;;;5059436;28;20037;-68
2021/12/25 14:28:09;;;;;;;220.20;88.10;;;;;;;;;;5058327;28;20025;-68
2021/12/25 14:30:39;;;;;;;227.93;90.30;;;;;;;;;;5059470;28;20021;-67
2021/12/25 14:33:12;;;;;;;241.00;90.07;;;;;;;;;;5059105;28;20036;-68
2021/12/25 14:35:39;;;;;;;239.52;87.53;;;;;;;;;;5059010;28;20025;-68
2021/12/25 14:38:07;;;;;;;240.68;93.03;;;;;;;;;;5058880;28;20017;-68
2021/12/25 14:40:39;;;;;;;242.82;89.82;;;;;;;;;;5061418;28;20024;-68
2021/12/25 14:43:07;;;;;;;228.68;89.43;;;;;;;;;;5058805;28;20318;-68
2021/12/25 14:45:45;;;;;;;249.90;94.47;;;;;;;;;;5057444;28;20036;-69
2021/12/25 14:48:13;;;;;;;239.75;90.78;;;;;;;;;;5057478;28;20021;-68
2021/12/25 14:50:40;;;;;;;231.98;88.18;;;;;;;;;;5057525;28;20021;-67
2021/12/25 14:53:18;;;;;;;234.48;91.18;;;;;;;;;;5058549;28;20171;-68
2021/12/25 14:55:49;;;;;;;244.25;91.28;;;;;;;;;;5057521;28;20028;-68
2021/12/25 14:58:23;;;;;;;219.52;88.95;;;;;;;;;;5056529;28;20052;-68
2021/12/25 15:01:01;;;;;;;239.48;88.13;;;;;;;;;;5056413;28;20032;-69
2021/12/25 15:03:29;;;;;;;233.50;84.30;;;;;;;;;;5056463;28;20048;-68
2021/12/25 15:05:57;;;;;;;229.63;85.05;;;;;;;;;;5056527;28;20040;-69
2021/12/25 15:08:28;;;;;;;217.80;86.97;;;;;;;;;;5056602;28;20029;-69
2021/12/25 15:11:03;;;;;;;235.52;87.18;;;;;;;;;;5056541;28;20025;-68
2021/12/25 15:13:31;;;;;;;292.70;114.78;;;;;;;;;;5056508;28;20029;-69
2021/12/25 15:16:00;;;;;;;349.52;151.50;;;;;;;;;;5056685;28;20038;-69
2021/12/25 15:18:30;;;;;;;361.90;157.80;;;;;;;;;;5039902;28;20039;-69
2021/12/25 15:21:18;;;;;;;364.83;168.32;;;;;;;;;;5056474;28;20040;-68
2021/12/25 15:23:45;;;;;;;420.38;189.68;;;;;;;;;;5057937;28;20095;-71
2021/12/25 15:26:19;;;;;;;404.80;191.18;;;;;;;;;;5039461;28;20040;-69
2021/12/25 15:28:56;;;;;;;638.72;301.90;;;;;;;;;;5056063;28;20085;-69
2021/12/25 15:31:25;;;;;;;614.35;281.88;;;;;;;;;;5056230;28;20108;-69
2021/12/25 15:33:54;;;;;;;509.88;203.95;;;;;;;;;;5056155;28;20029;-69
2021/12/25 15:36:23;;;;;;;403.90;157.63;;;;;;;;;;5056601;28;20021;-68
2021/12/25 15:38:51;;;;;;;346.40;138.27;;;;;;;;;;5056255;28;20469;-69
2021/12/25 15:41:19;;;;;;;302.15;124.65;;;;;;;;;;5056286;28;20147;-68
2021/12/25 15:43:47;;;;;;;279.67;117.55;;;;;;;;;;5039500;28;20024;-69
2021/12/25 15:46:15;;;;;;;231.93;95.47;;;;;;;;;;5056157;28;20369;-69